sensor_id;sensor_type;location;lat;lon;timestamp;pressure;altitude;pressure_sealevel;temperature;humidity
36242;BME280;22283;42.748;12.732;2023-04-06T00:04:44;98098.56;;;0.33;100.00
36242;BME280;22283;42.748;12.732;2023-04-06T00:09:45;98100.69;;;0.47;100.00
36242;BME280;22283;42.748;12.732;2023-04-06T00:14:45;98087.25;;;0.61;100.00
36242;BME280;22283;42.748;12.732;2023-04-06T00:19:46;98099.03;;;0.71;100.00
36242;BME280;22283;42.748;12.732;2023-04-06T00:24:47;98099.25;;;0.90;100.00
36242;BME280;22283;42.748;12.732;2023-04-06T00:29:48;98097.06;;;1.03;100.00
36242;BME280;22283;42.748;12.732;2023-04-06T00:34:48;98092.22;;;1.17;100.00
36242;BME280;22283;42.748;12.732;2023-04-06T00:39:49;98098.56;;;1.10;100.00
36242;BME280;22283;42.748;12.732;2023-04-06T00:44:53;98094.34;;;1.06;100.00
36242;BME280;22283;42.748;12.732;2023-04-06T00:49:54;98108.19;;;1.08;100.00
36242;BME280;22283;42.748;12.732;2023-04-06T00:54:55;98114.59;;;0.99;100.00
36242;BME280;22283;42.748;12.732;2023-04-06T00:59:57;98097.47;;;0.92;100.00
36242;BME280;22283;42.748;12.732;2023-04-06T01:04:58;98082.34;;;1.02;100.00
36242;BME280;22283;42.748;12.732;2023-04-06T01:10:05;98087.56;;;1.02;100.00
36242;BME280;22283;42.748;12.732;2023-04-06T01:15:08;98087.31;;;0.84;100.00
36242;BME280;22283;42.748;12.732;2023-04-06T01:20:12;98085.00;;;0.75;100.00
36242;BME280;22283;42.748;12.732;2023-04-06T01:25:13;98088.09;;;0.61;100.00
36242;BME280;22283;42.748;12.732;2023-04-06T01:30:47;98092.34;;;0.64;100.00
36242;BME280;22283;42.748;12.732;2023-04-06T01:36:01;98086.22;;;0.65;100.00
36242;BME280;22283;42.748;12.732;2023-04-06T01:41:03;98091.88;;;0.51;100.00
36242;BME280;22283;42.748;12.732;2023-04-06T01:46:10;98070.97;;;0.28;100.00
36242;BME280;22283;42.748;12.732;2023-04-06T01:51:14;98088.75;;;0.15;100.00
36242;BME280;22283;42.748;12.732;2023-04-06T01:56:25;98094.16;;;0.09;100.00
36242;BME280;22283;42.748;12.732;2023-04-06T02:01:36;98090.44;;;0.16;100.00
36242;BME280;22283;42.748;12.732;2023-04-06T02:06:55;98111.88;;;0.24;100.00
36242;BME280;22283;42.748;12.732;2023-04-06T02:12:00;98090.09;;;0.00;100.00
36242;BME280;22283;42.748;12.732;2023-04-06T02:17:03;98093.13;;;-0.14;100.00
36242;BME280;22283;42.748;12.732;2023-04-06T02:22:04;98110.53;;;-0.16;100.00
36242;BME280;22283;42.748;12.732;2023-04-06T02:27:06;98089.22;;;-0.29;100.00
36242;BME280;22283;42.748;12.732;2023-04-06T02:32:07;98086.28;;;-0.46;100.00
36242;BME280;22283;42.748;12.732;2023-04-06T02:37:08;98098.00;;;-0.33;100.00
36242;BME280;22283;42.748;12.732;2023-04-06T02:42:10;98110.97;;;-0.31;100.00
36242;BME280;22283;42.748;12.732;2023-04-06T02:47:12;98110.38;;;-0.11;100.00
36242;BME280;22283;42.748;12.732;2023-04-06T02:52:15;98103.34;;;-0.37;100.00
36242;BME280;22283;42.748;12.732;2023-04-06T02:57:19;98110.16;;;-0.33;100.00
36242;BME280;22283;42.748;12.732;2023-04-06T03:02:20;98126.75;;;-0.37;100.00
36242;BME280;22283;42.748;12.732;2023-04-06T03:07:21;98104.22;;;-0.68;100.00
36242;BME280;22283;42.748;12.732;2023-04-06T03:12:22;98110.47;;;-0.73;100.00
36242;BME280;22283;42.748;12.732;2023-04-06T03:17:46;98127.69;;;-0.69;100.00
36242;BME280;22283;42.748;12.732;2023-04-06T03:23:03;98142.34;;;-0.67;100.00
36242;BME280;22283;42.748;12.732;2023-04-06T03:28:09;98131.19;;;-0.72;100.00
36242;BME280;22283;42.748;12.732;2023-04-06T03:33:18;98122.78;;;-0.80;100.00
36242;BME280;22283;42.748;12.732;2023-04-06T03:38:26;98137.81;;;-0.60;100.00
36242;BME280;22283;42.748;12.732;2023-04-06T03:43:28;98145.94;;;-0.41;100.00
36242;BME280;22283;42.748;12.732;2023-04-06T03:48:28;98134.91;;;-0.50;100.00
36242;BME280;22283;42.748;12.732;2023-04-06T03:53:30;98137.78;;;-0.59;100.00
36242;BME280;22283;42.748;12.732;2023-04-06T03:58:31;98138.53;;;-0.55;100.00
36242;BME280;22283;42.748;12.732;2023-04-06T04:03:31;98135.72;;;-0.47;100.00
36242;BME280;22283;42.748;12.732;2023-04-06T04:08:32;98123.31;;;-0.69;100.00
36242;BME280;22283;42.748;12.732;2023-04-06T04:13:33;98136.94;;;-0.61;100.00
36242;BME280;22283;42.748;12.732;2023-04-06T04:18:38;98136.00;;;-0.89;100.00
36242;BME280;22283;42.748;12.732;2023-04-06T04:23:40;98145.69;;;-0.94;100.00
36242;BME280;22283;42.748;12.732;2023-04-06T04:28:41;98150.09;;;-0.98;100.00
36242;BME280;22283;42.748;12.732;2023-04-06T04:33:42;98157.84;;;-0.96;100.00
36242;BME280;22283;42.748;12.732;2023-04-06T04:38:48;98159.97;;;-0.80;100.00
36242;BME280;22283;42.748;12.732;2023-04-06T04:43:49;98156.94;;;-0.95;100.00
36242;BME280;22283;42.748;12.732;2023-04-06T04:48:55;98166.78;;;-1.07;100.00
36242;BME280;22283;42.748;12.732;2023-04-06T04:53:56;98171.16;;;-1.09;100.00
36242;BME280;22283;42.748;12.732;2023-04-06T04:59:01;98177.63;;;-1.25;100.00
36242;BME280;22283;42.748;12.732;2023-04-06T05:04:05;98177.31;;;-1.13;100.00
36242;BME280;22283;42.748;12.732;2023-04-06T05:09:05;98179.53;;;-0.99;100.00
36242;BME280;22283;42.748;12.732;2023-04-06T05:14:07;98169.25;;;-0.40;100.00
36242;BME280;22283;42.748;12.732;2023-04-06T05:19:08;98171.56;;;0.57;97.52
36242;BME280;22283;42.748;12.732;2023-04-06T05:24:15;98156.59;;;1.38;88.13
36242;BME280;22283;42.748;12.732;2023-04-06T05:29:18;98155.00;;;2.05;81.64
36242;BME280;22283;42.748;12.732;2023-04-06T05:34:20;98148.03;;;2.71;77.21
36242;BME280;22283;42.748;12.732;2023-04-06T05:39:23;98154.72;;;3.19;73.14
36242;BME280;22283;42.748;12.732;2023-04-06T05:44:26;98154.19;;;3.70;71.06
36242;BME280;22283;42.748;12.732;2023-04-06T05:49:36;98150.94;;;4.22;69.41
36242;BME280;22283;42.748;12.732;2023-04-06T05:54:40;98160.81;;;4.53;63.61
36242;BME280;22283;42.748;12.732;2023-04-06T05:59:40;98169.25;;;4.77;63.36
36242;BME280;22283;42.748;12.732;2023-04-06T06:04:41;98167.31;;;4.98;62.48
36242;BME280;22283;42.748;12.732;2023-04-06T06:09:42;98171.56;;;5.35;61.94
36242;BME280;22283;42.748;12.732;2023-04-06T06:14:52;98172.81;;;5.28;60.17
36242;BME280;22283;42.748;12.732;2023-04-06T06:19:54;98167.03;;;5.72;59.49
36242;BME280;22283;42.748;12.732;2023-04-06T06:24:55;98175.44;;;5.79;59.30
36242;BME280;22283;42.748;12.732;2023-04-06T06:29:57;98168.06;;;6.34;57.66
36242;BME280;22283;42.748;12.732;2023-04-06T06:34:58;98174.31;;;6.48;54.95
36242;BME280;22283;42.748;12.732;2023-04-06T06:39:59;98177.78;;;7.10;53.17
36242;BME280;22283;42.748;12.732;2023-04-06T06:45:00;98178.41;;;7.29;50.87
36242;BME280;22283;42.748;12.732;2023-04-06T06:50:01;98178.06;;;7.64;49.80
36242;BME280;22283;42.748;12.732;2023-04-06T06:55:04;98172.00;;;7.92;50.71
36242;BME280;22283;42.748;12.732;2023-04-06T07:00:05;98175.63;;;8.32;49.35
36242;BME280;22283;42.748;12.732;2023-04-06T07:05:08;98175.44;;;8.35;48.03
36242;BME280;22283;42.748;12.732;2023-04-06T07:10:10;98171.78;;;7.95;48.62
36242;BME280;22283;42.748;12.732;2023-04-06T07:15:12;98188.91;;;7.74;49.77
36242;BME280;22283;42.748;12.732;2023-04-06T07:20:13;98190.59;;;7.75;49.64
36242;BME280;22283;42.748;12.732;2023-04-06T07:25:14;98188.91;;;7.74;49.18
36242;BME280;22283;42.748;12.732;2023-04-06T07:30:15;98203.03;;;7.73;49.64
36242;BME280;22283;42.748;12.732;2023-04-06T07:35:16;98199.81;;;7.68;48.92
36242;BME280;22283;42.748;12.732;2023-04-06T07:40:17;98194.38;;;7.85;47.99
36242;BME280;22283;42.748;12.732;2023-04-06T07:45:19;98199.72;;;7.83;47.23
36242;BME280;22283;42.748;12.732;2023-04-06T07:50:20;98192.75;;;8.11;46.94
36242;BME280;22283;42.748;12.732;2023-04-06T07:55:21;98184.66;;;8.00;46.74
36242;BME280;22283;42.748;12.732;2023-04-06T08:00:22;98176.97;;;7.97;46.96
36242;BME280;22283;42.748;12.732;2023-04-06T08:05:23;98181.16;;;8.42;48.47
36242;BME280;22283;42.748;12.732;2023-04-06T08:10:23;98190.41;;;8.06;45.86
36242;BME280;22283;42.748;12.732;2023-04-06T08:15:24;98186.34;;;8.29;45.37
36242;BME280;22283;42.748;12.732;2023-04-06T08:20:25;98184.16;;;8.50;45.96
36242;BME280;22283;42.748;12.732;2023-04-06T08:25:26;98181.88;;;8.85;44.59
36242;BME280;22283;42.748;12.732;2023-04-06T08:30:27;98176.13;;;8.93;44.49
36242;BME280;22283;42.748;12.732;2023-04-06T08:35:28;98172.75;;;8.91;42.06
36242;BME280;22283;42.748;12.732;2023-04-06T08:40:28;98179.06;;;8.89;41.72
36242;BME280;22283;42.748;12.732;2023-04-06T08:45:29;98159.91;;;9.12;42.12
36242;BME280;22283;42.748;12.732;2023-04-06T08:50:35;98169.66;;;9.24;40.62
36242;BME280;22283;42.748;12.732;2023-04-06T08:55:36;98167.41;;;9.18;40.52
36242;BME280;22283;42.748;12.732;2023-04-06T09:00:38;98171.59;;;9.48;40.28
36242;BME280;22283;42.748;12.732;2023-04-06T09:05:39;98176.22;;;9.70;40.00
36242;BME280;22283;42.748;12.732;2023-04-06T09:10:41;98165.78;;;9.81;40.47
36242;BME280;22283;42.748;12.732;2023-04-06T09:15:41;98165.53;;;9.97;40.79
36242;BME280;22283;42.748;12.732;2023-04-06T09:20:42;98168.88;;;10.24;40.16
36242;BME280;22283;42.748;12.732;2023-04-06T09:25:43;98166.47;;;10.08;40.54
36242;BME280;22283;42.748;12.732;2023-04-06T09:30:49;98169.84;;;10.23;39.28
36242;BME280;22283;42.748;12.732;2023-04-06T09:35:50;98156.28;;;10.41;40.21
36242;BME280;22283;42.748;12.732;2023-04-06T09:40:51;98167.69;;;10.54;38.85
36242;BME280;22283;42.748;12.732;2023-04-06T09:45:52;98170.09;;;10.57;38.35
36242;BME280;22283;42.748;12.732;2023-04-06T09:50:59;98170.94;;;10.33;38.93
36242;BME280;22283;42.748;12.732;2023-04-06T09:56:03;98153.03;;;10.61;40.54
36242;BME280;22283;42.748;12.732;2023-04-06T10:01:12;98158.84;;;10.90;38.96
36242;BME280;22283;42.748;12.732;2023-04-06T10:06:17;98152.88;;;10.99;39.42
36242;BME280;22283;42.748;12.732;2023-04-06T10:11:22;98141.03;;;11.27;37.96
36242;BME280;22283;42.748;12.732;2023-04-06T10:16:23;98158.69;;;11.16;37.23
36242;BME280;22283;42.748;12.732;2023-04-06T10:21:26;98145.41;;;10.93;37.82
36242;BME280;22283;42.748;12.732;2023-04-06T10:26:28;98145.81;;;11.11;39.07
36242;BME280;22283;42.748;12.732;2023-04-06T10:31:28;98150.56;;;10.95;37.65
36242;BME280;22283;42.748;12.732;2023-04-06T10:36:33;98133.06;;;11.05;38.22
36242;BME280;22283;42.748;12.732;2023-04-06T10:41:36;98132.63;;;11.22;37.94
36242;BME280;22283;42.748;12.732;2023-04-06T10:46:56;98130.00;;;11.33;37.43
36242;BME280;22283;42.748;12.732;2023-04-06T10:51:57;98116.78;;;11.56;37.47
36242;BME280;22283;42.748;12.732;2023-04-06T10:56:58;98113.44;;;11.76;35.57
36242;BME280;22283;42.748;12.732;2023-04-06T11:01:58;98117.88;;;11.53;36.15
36242;BME280;22283;42.748;12.732;2023-04-06T11:06:59;98119.19;;;11.59;36.52
36242;BME280;22283;42.748;12.732;2023-04-06T11:12:00;98120.56;;;11.76;36.64
36242;BME280;22283;42.748;12.732;2023-04-06T11:17:01;98115.63;;;11.94;37.47
36242;BME280;22283;42.748;12.732;2023-04-06T11:22:07;98100.94;;;12.01;34.89
36242;BME280;22283;42.748;12.732;2023-04-06T11:27:08;98100.66;;;12.15;35.11
36242;BME280;22283;42.748;12.732;2023-04-06T11:32:09;98109.72;;;12.24;34.76
36242;BME280;22283;42.748;12.732;2023-04-06T11:37:11;98107.69;;;11.94;35.46
36242;BME280;22283;42.748;12.732;2023-04-06T11:42:12;98094.53;;;12.03;36.05
36242;BME280;22283;42.748;12.732;2023-04-06T11:47:13;98102.25;;;12.06;34.13
36242;BME280;22283;42.748;12.732;2023-04-06T11:57:19;98095.78;;;12.43;34.28
36242;BME280;22283;42.748;12.732;2023-04-06T12:02:20;98080.34;;;12.48;34.28
36242;BME280;22283;42.748;12.732;2023-04-06T12:07:20;98080.13;;;12.40;34.55
36242;BME280;22283;42.748;12.732;2023-04-06T12:12:21;98073.75;;;12.31;34.49
36242;BME280;22283;42.748;12.732;2023-04-06T12:17:22;98079.59;;;12.57;33.88
36242;BME280;22283;42.748;12.732;2023-04-06T12:22:22;98063.19;;;12.63;33.73
36242;BME280;22283;42.748;12.732;2023-04-06T12:27:23;98052.28;;;12.66;34.64
36242;BME280;22283;42.748;12.732;2023-04-06T12:32:24;98046.22;;;12.75;34.99
36242;BME280;22283;42.748;12.732;2023-04-06T12:37:24;98048.50;;;12.48;35.79
36242;BME280;22283;42.748;12.732;2023-04-06T12:42:26;98038.53;;;12.93;35.47
36242;BME280;22283;42.748;12.732;2023-04-06T12:47:27;98041.75;;;12.97;33.97
36242;BME280;22283;42.748;12.732;2023-04-06T12:52:28;98036.56;;;12.74;35.88
36242;BME280;22283;42.748;12.732;2023-04-06T12:57:31;98044.13;;;12.58;35.85
36242;BME280;22283;42.748;12.732;2023-04-06T13:02:32;98040.31;;;12.72;36.39
36242;BME280;22283;42.748;12.732;2023-04-06T13:07:33;98034.00;;;12.84;35.75
36242;BME280;22283;42.748;12.732;2023-04-06T13:12:34;98043.03;;;13.02;35.39
36242;BME280;22283;42.748;12.732;2023-04-06T13:17:35;98043.50;;;12.87;34.25
36242;BME280;22283;42.748;12.732;2023-04-06T13:22:35;98041.94;;;13.05;34.54
36242;BME280;22283;42.748;12.732;2023-04-06T13:27:37;98028.69;;;12.84;35.10
36242;BME280;22283;42.748;12.732;2023-04-06T13:32:37;98040.09;;;12.96;35.39
36242;BME280;22283;42.748;12.732;2023-04-06T13:37:38;98038.06;;;13.09;35.54
36242;BME280;22283;42.748;12.732;2023-04-06T13:42:39;98032.56;;;12.80;34.68
36242;BME280;22283;42.748;12.732;2023-04-06T13:47:41;98039.69;;;12.79;34.54
36242;BME280;22283;42.748;12.732;2023-04-06T13:52:41;98034.09;;;12.83;34.39
36242;BME280;22283;42.748;12.732;2023-04-06T13:57:42;98031.88;;;12.99;34.72
36242;BME280;22283;42.748;12.732;2023-04-06T14:02:43;98027.09;;;13.02;34.69
36242;BME280;22283;42.748;12.732;2023-04-06T14:07:44;98032.94;;;13.17;34.92
36242;BME280;22283;42.748;12.732;2023-04-06T14:12:45;98037.03;;;13.00;33.49
36242;BME280;22283;42.748;12.732;2023-04-06T14:17:46;98030.81;;;13.11;34.71
36242;BME280;22283;42.748;12.732;2023-04-06T14:22:46;98030.38;;;13.27;34.91
36242;BME280;22283;42.748;12.732;2023-04-06T14:27:49;98027.13;;;13.54;33.71
36242;BME280;22283;42.748;12.732;2023-04-06T14:32:50;98028.00;;;13.55;34.76
36242;BME280;22283;42.748;12.732;2023-04-06T14:37:50;98027.06;;;13.35;33.66
36242;BME280;22283;42.748;12.732;2023-04-06T14:42:51;98023.50;;;13.24;33.59
36242;BME280;22283;42.748;12.732;2023-04-06T14:47:52;98026.53;;;13.20;33.58
36242;BME280;22283;42.748;12.732;2023-04-06T14:52:53;98030.25;;;13.28;34.00
36242;BME280;22283;42.748;12.732;2023-04-06T14:57:54;98031.91;;;13.09;33.42
36242;BME280;22283;42.748;12.732;2023-04-06T15:02:54;98044.75;;;13.24;34.17
36242;BME280;22283;42.748;12.732;2023-04-06T15:07:55;98037.81;;;13.12;33.75
36242;BME280;22283;42.748;12.732;2023-04-06T15:12:56;98034.81;;;13.05;33.20
36242;BME280;22283;42.748;12.732;2023-04-06T15:17:56;98033.00;;;13.06;34.20
36242;BME280;22283;42.748;12.732;2023-04-06T15:22:57;98041.72;;;12.87;34.11
36242;BME280;22283;42.748;12.732;2023-04-06T15:27:58;98034.31;;;12.91;33.63
36242;BME280;22283;42.748;12.732;2023-04-06T15:33:00;98039.63;;;12.91;33.77
36242;BME280;22283;42.748;12.732;2023-04-06T15:38:02;98040.38;;;12.82;33.22
36242;BME280;22283;42.748;12.732;2023-04-06T15:43:02;98032.22;;;12.73;33.78
36242;BME280;22283;42.748;12.732;2023-04-06T15:48:03;98040.38;;;12.82;34.18
36242;BME280;22283;42.748;12.732;2023-04-06T15:53:04;98032.28;;;12.62;33.83
36242;BME280;22283;42.748;12.732;2023-04-06T15:58:05;98044.69;;;12.62;33.80
36242;BME280;22283;42.748;12.732;2023-04-06T16:03:06;98042.59;;;12.76;33.69
36242;BME280;22283;42.748;12.732;2023-04-06T16:08:07;98035.91;;;12.61;33.17
36242;BME280;22283;42.748;12.732;2023-04-06T16:13:08;98038.56;;;12.61;33.25
36242;BME280;22283;42.748;12.732;2023-04-06T16:18:09;98034.50;;;12.46;32.89
36242;BME280;22283;42.748;12.732;2023-04-06T16:23:09;98032.72;;;12.35;33.59
36242;BME280;22283;42.748;12.732;2023-04-06T16:28:11;98035.75;;;12.30;33.81
36242;BME280;22283;42.748;12.732;2023-04-06T16:33:12;98028.09;;;12.16;33.93
36242;BME280;22283;42.748;12.732;2023-04-06T16:38:14;98031.97;;;12.12;34.13
36242;BME280;22283;42.748;12.732;2023-04-06T16:43:15;98036.09;;;12.05;34.87
36242;BME280;22283;42.748;12.732;2023-04-06T16:48:16;98033.69;;;11.91;34.59
36242;BME280;22283;42.748;12.732;2023-04-06T16:53:16;98035.75;;;11.76;35.60
36242;BME280;22283;42.748;12.732;2023-04-06T16:58:17;98039.22;;;11.65;35.71
36242;BME280;22283;42.748;12.732;2023-04-06T17:03:18;98035.00;;;11.51;36.79
36242;BME280;22283;42.748;12.732;2023-04-06T17:08:19;98041.16;;;11.41;37.70
36242;BME280;22283;42.748;12.732;2023-04-06T17:13:19;98040.06;;;11.21;37.79
36242;BME280;22283;42.748;12.732;2023-04-06T17:18:20;98044.22;;;11.01;38.32
36242;BME280;22283;42.748;12.732;2023-04-06T17:23:21;98047.78;;;10.77;38.76
36242;BME280;22283;42.748;12.732;2023-04-06T17:28:24;98044.28;;;10.42;39.56
36242;BME280;22283;42.748;12.732;2023-04-06T17:33:26;98049.78;;;10.02;40.57
36242;BME280;22283;42.748;12.732;2023-04-06T17:38:27;98054.31;;;9.63;41.75
36242;BME280;22283;42.748;12.732;2023-04-06T17:43:28;98047.56;;;9.33;41.94
36242;BME280;22283;42.748;12.732;2023-04-06T17:48:29;98053.25;;;9.02;43.01
36242;BME280;22283;42.748;12.732;2023-04-06T17:53:31;98053.13;;;8.78;44.72
36242;BME280;22283;42.748;12.732;2023-04-06T17:58:33;98059.94;;;8.55;46.40
36242;BME280;22283;42.748;12.732;2023-04-06T18:03:34;98059.63;;;8.32;47.40
36242;BME280;22283;42.748;12.732;2023-04-06T18:08:35;98082.59;;;8.30;47.44
36242;BME280;22283;42.748;12.732;2023-04-06T18:13:36;98073.75;;;8.04;48.40
36242;BME280;22283;42.748;12.732;2023-04-06T18:18:37;98084.94;;;7.94;48.86
36242;BME280;22283;42.748;12.732;2023-04-06T18:23:40;98085.00;;;7.65;49.53
36242;BME280;22283;42.748;12.732;2023-04-06T18:28:41;98090.63;;;7.45;50.10
36242;BME280;22283;42.748;12.732;2023-04-06T18:33:41;98083.28;;;7.35;49.96
36242;BME280;22283;42.748;12.732;2023-04-06T18:38:44;98095.50;;;7.51;49.89
36242;BME280;22283;42.748;12.732;2023-04-06T18:43:47;98098.91;;;7.38;50.12
36242;BME280;22283;42.748;12.732;2023-04-06T18:48:48;98104.78;;;7.28;50.46
36242;BME280;22283;42.748;12.732;2023-04-06T18:53:49;98119.06;;;7.24;50.34
36242;BME280;22283;42.748;12.732;2023-04-06T18:58:50;98125.19;;;7.10;50.62
36242;BME280;22283;42.748;12.732;2023-04-06T19:03:52;98131.00;;;6.85;51.22
36242;BME280;22283;42.748;12.732;2023-04-06T19:08:53;98128.88;;;6.61;51.51
36242;BME280;22283;42.748;12.732;2023-04-06T19:13:54;98141.28;;;6.28;51.94
36242;BME280;22283;42.748;12.732;2023-04-06T19:18:54;98136.53;;;6.03;52.20
36242;BME280;22283;42.748;12.732;2023-04-06T19:23:55;98141.25;;;5.96;53.17
36242;BME280;22283;42.748;12.732;2023-04-06T19:28:56;98152.78;;;5.94;53.40
36242;BME280;22283;42.748;12.732;2023-04-06T19:33:57;98151.97;;;5.76;54.86
36242;BME280;22283;42.748;12.732;2023-04-06T19:38:58;98151.63;;;5.49;55.15
36242;BME280;22283;42.748;12.732;2023-04-06T19:43:59;98160.75;;;5.41;55.46
36242;BME280;22283;42.748;12.732;2023-04-06T19:49:00;98161.53;;;5.26;56.23
36242;BME280;22283;42.748;12.732;2023-04-06T19:54:00;98159.06;;;5.06;56.78
36242;BME280;22283;42.748;12.732;2023-04-06T19:59:02;98152.28;;;4.84;57.53
36242;BME280;22283;42.748;12.732;2023-04-06T20:04:03;98165.53;;;4.81;57.99
36242;BME280;22283;42.748;12.732;2023-04-06T20:09:04;98167.94;;;4.68;58.36
36242;BME280;22283;42.748;12.732;2023-04-06T20:14:04;98168.44;;;4.58;58.84
36242;BME280;22283;42.748;12.732;2023-04-06T20:19:05;98165.19;;;4.53;58.57
36242;BME280;22283;42.748;12.732;2023-04-06T20:24:06;98168.56;;;4.55;58.66
36242;BME280;22283;42.748;12.732;2023-04-06T20:29:07;98168.28;;;4.43;58.91
36242;BME280;22283;42.748;12.732;2023-04-06T20:34:07;98177.97;;;4.41;58.64
36242;BME280;22283;42.748;12.732;2023-04-06T20:39:08;98173.81;;;4.55;58.25
36242;BME280;22283;42.748;12.732;2023-04-06T20:44:09;98161.53;;;4.74;56.92
36242;BME280;22283;42.748;12.732;2023-04-06T20:49:11;98187.81;;;4.73;57.79
36242;BME280;22283;42.748;12.732;2023-04-06T20:54:12;98192.59;;;4.46;58.60
36242;BME280;22283;42.748;12.732;2023-04-06T20:59:13;98186.75;;;4.40;58.81
36242;BME280;22283;42.748;12.732;2023-04-06T21:04:13;98200.34;;;4.30;59.02
36242;BME280;22283;42.748;12.732;2023-04-06T21:09:14;98195.38;;;4.24;60.11
36242;BME280;22283;42.748;12.732;2023-04-06T21:14:15;98199.47;;;3.91;60.63
36242;BME280;22283;42.748;12.732;2023-04-06T21:19:16;98194.91;;;3.97;61.13
36242;BME280;22283;42.748;12.732;2023-04-06T21:24:17;98188.44;;;4.41;58.58
36242;BME280;22283;42.748;12.732;2023-04-06T21:29:18;98180.44;;;4.44;58.64
36242;BME280;22283;42.748;12.732;2023-04-06T21:34:19;98182.03;;;4.66;56.71
36242;BME280;22283;42.748;12.732;2023-04-06T21:39:19;98195.94;;;4.49;57.59
36242;BME280;22283;42.748;12.732;2023-04-06T21:44:20;98197.63;;;4.31;58.48
36242;BME280;22283;42.748;12.732;2023-04-06T21:49:21;98190.56;;;4.33;58.03
36242;BME280;22283;42.748;12.732;2023-04-06T21:54:22;98195.50;;;4.39;57.96
36242;BME280;22283;42.748;12.732;2023-04-06T21:59:23;98187.16;;;4.50;57.56
36242;BME280;22283;42.748;12.732;2023-04-06T22:04:24;98183.19;;;4.41;58.28
36242;BME280;22283;42.748;12.732;2023-04-06T22:09:24;98189.59;;;4.17;59.82
36242;BME280;22283;42.748;12.732;2023-04-06T22:14:25;98177.53;;;3.75;61.21
36242;BME280;22283;42.748;12.732;2023-04-06T22:19:26;98184.13;;;3.44;62.82
36242;BME280;22283;42.748;12.732;2023-04-06T22:24:27;98192.47;;;3.12;65.32
36242;BME280;22283;42.748;12.732;2023-04-06T22:29:27;98197.56;;;2.94;68.32
36242;BME280;22283;42.748;12.732;2023-04-06T22:34:28;98193.78;;;2.81;68.89
36242;BME280;22283;42.748;12.732;2023-04-06T22:39:29;98189.63;;;2.76;68.53
36242;BME280;22283;42.748;12.732;2023-04-06T22:44:29;98192.16;;;2.77;69.10
36242;BME280;22283;42.748;12.732;2023-04-06T22:49:30;98206.16;;;2.76;67.95
36242;BME280;22283;42.748;12.732;2023-04-06T22:54:31;98205.81;;;2.85;67.99
36242;BME280;22283;42.748;12.732;2023-04-06T22:59:32;98197.03;;;2.86;67.87
36242;BME280;22283;42.748;12.732;2023-04-06T23:04:34;98194.97;;;2.94;67.56
36242;BME280;22283;42.748;12.732;2023-04-06T23:09:35;98190.19;;;3.04;67.62
36242;BME280;22283;42.748;12.732;2023-04-06T23:14:36;98197.13;;;3.05;67.67
36242;BME280;22283;42.748;12.732;2023-04-06T23:19:37;98202.91;;;3.34;65.02
36242;BME280;22283;42.748;12.732;2023-04-06T23:24:37;98199.47;;;3.32;65.05
36242;BME280;22283;42.748;12.732;2023-04-06T23:29:38;98201.84;;;3.17;65.18
36242;BME280;22283;42.748;12.732;2023-04-06T23:34:39;98195.16;;;2.90;67.30
36242;BME280;22283;42.748;12.732;2023-04-06T23:39:40;98205.19;;;2.79;68.26
36242;BME280;22283;42.748;12.732;2023-04-06T23:44:42;98209.34;;;2.62;69.20
36242;BME280;22283;42.748;12.732;2023-04-06T23:49:42;98209.31;;;2.40;70.17
36242;BME280;22283;42.748;12.732;2023-04-06T23:54:43;98210.59;;;2.30;71.81
36242;BME280;22283;42.748;12.732;2023-04-06T23:59:44;98205.03;;;2.16;72.93
